Temp: 18.2°C   Baro: 1025.5mb
  Wind: 12.1mph   Dir: NW (323°)
  Rain: 1.2mm (0.0mm/hr)
  Solar: 70W/m2  Hum: 64%
 
Cotswold Observatory Historical Data
 
Daily Summary for August 20, 2019 Units:  Metric    English   Both
Next Day »
Daily Weekly Monthly Yearly Custom
  Current: High: Low: Average:
Temperature: 18.2 °C 19.1 °C 11.4 °C 15 °C
Dew Point: 11.0 °C 11.7 °C 5.6 °C 10.1 °C
Humidity: 63% 92% 42% 75%
Wind Speed: 11.1km/h 27.4km/h 0.0km/h 9.5km/h
Wind Gust: 16.1km/h 33.8km/h - -
Wind directionWNW - - West
Pressure: 1025.3 hPa 1025.3 hPa 1019.2 hPa -
Precipitation: 1.3 mm      
Historical Graphs
 
 
Tabular Data for August 20, 2019
Time Temperature Dew Point Pressure Wind direction Wind Speed Wind Gust Humidity Rainfall Rate (Hourly) solar
00:00 13.4 °C 10.8 °C 1019.2 hPa WSW 3.2 km/h 8.0 km/h 84% 0.0 mm 0.00 W/m2
00:05 13.4 °C 10.8 °C 1019.2 hPa WSW 4.7 km/h 4.8 km/h 84% 0.0 mm 0.00 W/m2
00:10 13.3 °C 10.7 °C 1019.2 hPa Calm   4.8 km/h 84% 0.0 mm 0.00 W/m2
00:15 13.2 °C 10.7 °C 1019.2 hPa SW 6.4 km/h 6.4 km/h 85% 0.0 mm 0.00 W/m2
00:20 13.2 °C 10.7 °C 1019.5 hPa SW 3.2 km/h 14.5 km/h 85% 0.0 mm 0.00 W/m2
00:25 13.2 °C 10.7 °C 1019.5 hPa West 3.2 km/h 9.7 km/h 85% 0.0 mm 0.00 W/m2
00:30 13.1 °C 10.6 °C 1019.5 hPa WSW 6.4 km/h 11.3 km/h 85% 0.0 mm 0.00 W/m2
00:35 13.1 °C 10.8 °C 1019.5 hPa WSW 4.7 km/h 11.3 km/h 86% 0.3 mm 0.00 W/m2
00:40 13.1 °C 10.8 °C 1019.5 hPa WSW 4.7 km/h 12.9 km/h 86% 0.5 mm 0.00 W/m2
00:45 13.0 °C 10.9 °C 1019.5 hPa SW 7.9 km/h 12.9 km/h 87% 0.8 mm 0.00 W/m2
00:50 12.9 °C 11.0 °C 1019.5 hPa WSW 11.1 km/h 19.3 km/h 88% 0.8 mm 0.00 W/m2
00:55 12.9 °C 11.0 °C 1019.5 hPa WSW 4.7 km/h 14.5 km/h 88% 0.8 mm 0.00 W/m2
01:00 12.9 °C 11.1 °C 1019.5 hPa SW 6.4 km/h 17.7 km/h 89% 0.8 mm 0.00 W/m2
01:05 12.9 °C 11.1 °C 1019.5 hPa WSW 3.2 km/h 11.3 km/h 89% 0.8 mm 0.00 W/m2
01:10 12.9 °C 11.1 °C 1019.5 hPa West 14.3 km/h 16.1 km/h 89% 0.8 mm 0.00 W/m2
01:15 12.8 °C 11.0 °C 1019.5 hPa Calm   11.3 km/h 89% 0.8 mm 0.00 W/m2
01:20 12.7 °C 10.9 °C 1019.5 hPa West 9.7 km/h 16.1 km/h 89% 0.8 mm 0.00 W/m2
01:25 12.6 °C 10.8 °C 1019.5 hPa WSW 11.1 km/h 12.9 km/h 89% 0.8 mm 0.00 W/m2
01:30 12.6 °C 10.8 °C 1019.5 hPa WSW 6.4 km/h 14.5 km/h 89% 0.8 mm 0.00 W/m2
01:35 12.6 °C 10.8 °C 1019.5 hPa SW 6.4 km/h 11.3 km/h 89% 0.3 mm 0.00 W/m2
01:40 12.6 °C 10.8 °C 1019.5 hPa West 4.7 km/h 11.3 km/h 89% 0.5 mm 0.00 W/m2
01:45 12.7 °C 11.1 °C 1019.5 hPa WSW 4.7 km/h 12.9 km/h 90% 0.3 mm 0.00 W/m2
01:50 12.7 °C 11.1 °C 1019.5 hPa WSW 3.2 km/h 9.7 km/h 90% 0.3 mm 0.00 W/m2
01:55 12.7 °C 11.1 °C 1019.5 hPa West 9.7 km/h 11.3 km/h 90% 0.3 mm 0.00 W/m2
02:00 12.7 °C 11.1 °C 1019.5 hPa West 1.4 km/h 12.9 km/h 90% 0.3 mm 0.00 W/m2
02:05 12.6 °C 11.0 °C 1019.5 hPa WSW 4.7 km/h 9.7 km/h 90% 0.3 mm 0.00 W/m2
02:10 12.6 °C 11.0 °C 1019.5 hPa WSW 6.4 km/h 11.3 km/h 90% 0.3 mm 0.00 W/m2
02:15 12.6 °C 11.0 °C 1019.5 hPa SW 3.2 km/h 9.7 km/h 90% 0.3 mm 0.00 W/m2
02:20 12.5 °C 10.9 °C 1019.5 hPa Calm   4.8 km/h 90% 0.3 mm 0.00 W/m2
02:25 12.4 °C 10.8 °C 1019.5 hPa WSW 7.9 km/h 8.0 km/h 90% 0.3 mm 0.00 W/m2
02:30 12.5 °C 10.9 °C 1019.5 hPa Calm   12.9 km/h 90% 0.3 mm 0.00 W/m2
02:35 12.5 °C 10.9 °C 1019.5 hPa Calm     90% 0.0 mm 0.00 W/m2
02:40 12.4 °C 10.8 °C 1019.2 hPa Calm   3.2 km/h 90% 0.0 mm 0.00 W/m2
02:45 12.4 °C 10.8 °C 1019.2 hPa Calm     90% 0.0 mm 0.00 W/m2
02:50 12.3 °C 10.7 °C 1019.2 hPa Calm     90% 0.0 mm 0.00 W/m2
02:55 12.3 °C 10.7 °C 1019.5 hPa Calm     90% 0.0 mm 0.00 W/m2
03:00 12.3 °C 10.9 °C 1019.5 hPa Calm     91% 0.0 mm 0.00 W/m2
03:05 12.2 °C 10.8 °C 1019.5 hPa Calm     91% 0.0 mm 0.00 W/m2
03:10 12.2 °C 10.8 °C 1019.5 hPa Calm     91% 0.0 mm 0.00 W/m2
03:15 12.2 °C 10.8 °C 1019.5 hPa Calm     91% 0.0 mm 0.00 W/m2
03:20 12.1 °C 10.8 °C 1019.5 hPa Calm     92% 0.0 mm 0.00 W/m2
03:25 12.2 °C 10.9 °C 1019.5 hPa Calm   4.8 km/h 92% 0.0 mm 0.00 W/m2
03:30 12.3 °C 11.0 °C 1019.5 hPa WSW 7.9 km/h 8.0 km/h 92% 0.0 mm 0.00 W/m2
03:35 12.4 °C 11.1 °C 1019.5 hPa West 1.4 km/h 8.0 km/h 92% 0.0 mm 0.00 W/m2
03:40 12.6 °C 11.3 °C 1019.5 hPa West 4.7 km/h 11.3 km/h 92% 0.0 mm 0.00 W/m2
03:45 12.7 °C 11.4 °C 1019.9 hPa WSW 4.7 km/h 11.3 km/h 92% 0.0 mm 0.00 W/m2
03:50 12.8 °C 11.5 °C 1019.9 hPa West 3.2 km/h 9.7 km/h 92% 0.0 mm 0.00 W/m2
03:55 12.8 °C 11.5 °C 1019.9 hPa West 3.2 km/h 14.5 km/h 92% 0.0 mm 0.00 W/m2
04:00 12.8 °C 11.5 °C 1019.9 hPa West 4.7 km/h 9.7 km/h 92% 0.0 mm 0.00 W/m2
04:05 12.8 °C 11.5 °C 1019.9 hPa West 4.7 km/h 14.5 km/h 92% 0.0 mm 0.00 W/m2
04:10 12.8 °C 11.5 °C 1019.9 hPa West 3.2 km/h 9.7 km/h 92% 0.0 mm 0.00 W/m2
04:15 12.7 °C 11.3 °C 1019.9 hPa WSW 4.7 km/h 9.7 km/h 91% 0.0 mm 0.00 W/m2
04:20 12.7 °C 11.3 °C 1019.9 hPa WSW 4.7 km/h 8.0 km/h 91% 0.3 mm 0.00 W/m2
04:25 12.6 °C 11.2 °C 1020.2 hPa WSW 1.4 km/h 8.0 km/h 91% 0.3 mm 0.00 W/m2
04:30 12.6 °C 11.3 °C 1019.9 hPa WSW 3.2 km/h 11.3 km/h 92% 0.3 mm 0.00 W/m2
04:35 12.7 °C 11.4 °C 1019.9 hPa SW 1.4 km/h 12.9 km/h 92% 0.3 mm 0.00 W/m2
04:40 12.6 °C 11.2 °C 1020.2 hPa WNW 3.2 km/h 9.7 km/h 91% 0.3 mm 0.00 W/m2
04:45 12.6 °C 11.2 °C 1020.2 hPa West 11.3 km/h 11.3 km/h 91% 0.3 mm 0.00 W/m2
04:50 12.6 °C 11.2 °C 1020.2 hPa WSW 3.2 km/h 9.7 km/h 91% 0.3 mm 0.00 W/m2
04:55 12.5 °C 11.1 °C 1020.2 hPa Calm   3.2 km/h 91% 0.3 mm 0.00 W/m2
05:00 12.4 °C 11.0 °C 1020.2 hPa WSW 4.7 km/h 8.0 km/h 91% 0.3 mm 0.00 W/m2
05:05 12.3 °C 10.9 °C 1020.2 hPa WSW 4.7 km/h 11.3 km/h 91% 0.3 mm 0.00 W/m2
05:10 12.3 °C 10.9 °C 1020.5 hPa SW 3.2 km/h 6.4 km/h 91% 0.3 mm 0.00 W/m2
05:15 12.3 °C 10.9 °C 1020.2 hPa WSW 3.2 km/h 6.4 km/h 91% 0.0 mm 0.00 W/m2
05:20 12.2 °C 10.8 °C 1020.5 hPa WSW 6.4 km/h 6.4 km/h 91% 0.0 mm 0.00 W/m2
05:25 12.2 °C 10.8 °C 1020.5 hPa WSW 3.2 km/h 8.0 km/h 91% 0.0 mm 0.00 W/m2
05:30 12.2 °C 10.8 °C 1020.5 hPa WSW 6.4 km/h 6.4 km/h 91% 0.0 mm 0.00 W/m2
05:35 12.1 °C 10.7 °C 1020.5 hPa WNW 3.2 km/h 6.4 km/h 91% 0.0 mm 0.00 W/m2
05:40 12.0 °C 10.4 °C 1020.5 hPa WSW 3.2 km/h 6.4 km/h 90% 0.0 mm 0.00 W/m2
05:45 11.9 °C 10.3 °C 1020.5 hPa West 1.4 km/h 4.8 km/h 90% 0.0 mm 0.00 W/m2
05:50 11.9 °C 10.3 °C 1020.5 hPa West 3.2 km/h 4.8 km/h 90% 0.0 mm 0.00 W/m2
05:55 11.9 °C 10.3 °C 1020.5 hPa Calm   6.4 km/h 90% 0.0 mm 0.00 W/m2
06:00 11.9 °C 10.3 °C 1020.9 hPa WSW 6.4 km/h 8.0 km/h 90% 0.0 mm 0.00 W/m2
06:05 11.8 °C 10.2 °C 1020.9 hPa WSW 3.2 km/h 8.0 km/h 90% 0.0 mm 0.00 W/m2
06:10 11.8 °C 10.2 °C 1020.9 hPa West 6.4 km/h 9.7 km/h 90% 0.0 mm 7.00 W/m2
06:15 11.7 °C 10.1 °C 1020.9 hPa West 4.7 km/h 9.7 km/h 90% 0.0 mm 11.00 W/m2
06:20 11.7 °C 10.1 °C 1020.9 hPa WSW 4.7 km/h 4.8 km/h 90% 0.0 mm 14.00 W/m2
06:25 11.6 °C 10.0 °C 1020.9 hPa WSW 3.2 km/h 4.8 km/h 90% 0.0 mm 18.00 W/m2
06:30 11.7 °C 10.1 °C 1020.9 hPa West 3.2 km/h 9.7 km/h 90% 0.0 mm 21.00 W/m2
06:35 11.6 °C 10.0 °C 1021.2 hPa West 9.7 km/h 11.3 km/h 90% 0.0 mm 25.00 W/m2
06:40 11.6 °C 10.0 °C 1021.2 hPa Calm   4.8 km/h 90% 0.0 mm 28.00 W/m2
06:45 11.5 °C 9.9 °C 1021.2 hPa Calm   11.3 km/h 90% 0.0 mm 40.00 W/m2
06:50 11.4 °C 9.8 °C 1021.2 hPa Calm     90% 0.0 mm 49.00 W/m2
06:55 11.4 °C 9.8 °C 1021.2 hPa Calm   3.2 km/h 90% 0.0 mm 58.00 W/m2
07:00 11.4 °C 10.0 °C 1021.2 hPa West 1.4 km/h 9.7 km/h 91% 0.0 mm 69.00 W/m2
07:05 11.4 °C 9.8 °C 1021.2 hPa West 1.4 km/h 1.6 km/h 90% 0.0 mm 77.00 W/m2
07:10 11.5 °C 9.9 °C 1021.6 hPa Calm   9.7 km/h 90% 0.0 mm 88.00 W/m2
07:15 11.6 °C 10.2 °C 1021.6 hPa Calm     91% 0.0 mm 100.00 W/m2
07:20 11.6 °C 10.0 °C 1021.6 hPa Calm     90% 0.0 mm 111.00 W/m2
07:25 11.8 °C 10.4 °C 1021.6 hPa West 3.2 km/h 3.2 km/h 91% 0.0 mm 123.00 W/m2
07:30 11.9 °C 10.5 °C 1021.6 hPa Calm     91% 0.0 mm 134.00 W/m2
07:35 12.1 °C 10.7 °C 1021.6 hPa West 6.4 km/h 6.4 km/h 91% 0.0 mm 149.00 W/m2
07:40 12.2 °C 10.6 °C 1021.9 hPa West 1.4 km/h 9.7 km/h 90% 0.0 mm 160.00 W/m2
07:45 12.3 °C 10.7 °C 1021.9 hPa West 1.4 km/h 4.8 km/h 90% 0.0 mm 172.00 W/m2
07:50 12.3 °C 10.7 °C 1021.9 hPa West 3.2 km/h 11.3 km/h 90% 0.0 mm 186.00 W/m2
07:55 12.6 °C 11.0 °C 1021.9 hPa West 4.7 km/h 9.7 km/h 90% 0.0 mm 200.00 W/m2
08:00 12.6 °C 10.8 °C 1021.9 hPa WNW 6.4 km/h 11.3 km/h 89% 0.0 mm 213.00 W/m2
08:05 12.7 °C 10.8 °C 1022.2 hPa NW 4.7 km/h 11.3 km/h 88% 0.0 mm 227.00 W/m2
08:10 12.8 °C 10.7 °C 1022.2 hPa WNW 11.1 km/h 12.9 km/h 87% 0.0 mm 241.00 W/m2
08:15 13.0 °C 10.9 °C 1022.2 hPa West 9.7 km/h 14.5 km/h 87% 0.0 mm 251.00 W/m2
08:20 13.2 °C 10.9 °C 1022.2 hPa WNW 6.4 km/h 12.9 km/h 86% 0.0 mm 269.00 W/m2
08:25 13.3 °C 11.0 °C 1022.2 hPa WNW 6.4 km/h 12.9 km/h 86% 0.0 mm 285.00 W/m2
08:30 13.4 °C 10.9 °C 1022.2 hPa WNW 13.0 km/h 14.5 km/h 85% 0.0 mm 301.00 W/m2
08:35 13.6 °C 11.1 °C 1022.6 hPa West 9.7 km/h 16.1 km/h 85% 0.0 mm 320.00 W/m2
08:40 13.7 °C 11.0 °C 1022.6 hPa WNW 6.4 km/h 16.1 km/h 84% 0.0 mm 334.00 W/m2
08:45 13.8 °C 11.0 °C 1022.6 hPa West 9.7 km/h 17.7 km/h 83% 0.0 mm 348.00 W/m2
08:50 14.0 °C 11.2 °C 1022.6 hPa WNW 6.4 km/h 14.5 km/h 83% 0.0 mm 366.00 W/m2
08:55 14.1 °C 11.3 °C 1022.6 hPa WNW 6.4 km/h 17.7 km/h 83% 0.0 mm 385.00 W/m2
09:00 14.1 °C 11.3 °C 1022.9 hPa NW 7.9 km/h 16.1 km/h 83% 0.0 mm 399.00 W/m2
09:05 14.2 °C 11.2 °C 1022.9 hPa WNW 4.7 km/h 14.5 km/h 82% 0.0 mm 410.00 W/m2
09:10 14.4 °C 11.4 °C 1022.9 hPa NW 4.7 km/h 16.1 km/h 82% 0.0 mm 425.00 W/m2
09:15 14.4 °C 11.2 °C 1022.9 hPa West 16.3 km/h 16.1 km/h 81% 0.0 mm 431.00 W/m2
09:20 14.6 °C 11.2 °C 1022.9 hPa NW 13.0 km/h 19.3 km/h 80% 0.0 mm 448.00 W/m2
09:25 14.6 °C 11.2 °C 1023.2 hPa NW 17.7 km/h 17.7 km/h 80% 0.0 mm 471.00 W/m2
09:30 14.7 °C 11.1 °C 1023.2 hPa NW 13.0 km/h 17.7 km/h 79% 0.0 mm 478.00 W/m2
09:35 14.8 °C 11.2 °C 1023.2 hPa NW 13.0 km/h 19.3 km/h 79% 0.0 mm 496.00 W/m2
09:40 15.1 °C 11.7 °C 1023.2 hPa WNW 11.1 km/h 16.1 km/h 80% 0.0 mm 526.00 W/m2
09:45 15.1 °C 11.1 °C 1023.2 hPa West 14.3 km/h 25.7 km/h 77% 0.0 mm 536.00 W/m2
09:50 15.2 °C 11.2 °C 1023.2 hPa WNW 11.1 km/h 12.9 km/h 77% 0.0 mm 557.00 W/m2
09:55 15.3 °C 10.9 °C 1023.2 hPa NNW 14.3 km/h 22.5 km/h 75% 0.0 mm 564.00 W/m2
10:00 15.2 °C 10.4 °C 1023.2 hPa NW 9.7 km/h 17.7 km/h 73% 0.0 mm 557.00 W/m2
10:05 15.4 °C 10.8 °C 1023.6 hPa West 19.5 km/h 19.3 km/h 74% 0.0 mm 561.00 W/m2
10:10 15.5 °C 10.3 °C 1023.6 hPa West 9.7 km/h 19.3 km/h 71% 0.0 mm 570.00 W/m2
10:15 15.6 °C 10.4 °C 1023.6 hPa NW 11.1 km/h 19.3 km/h 71% 0.0 mm 578.00 W/m2
10:20 15.7 °C 10.7 °C 1023.6 hPa West 6.4 km/h 12.9 km/h 72% 0.0 mm 587.00 W/m2
10:25 15.7 °C 10.5 °C 1023.6 hPa WNW 4.7 km/h 17.7 km/h 71% 0.0 mm 603.00 W/m2
10:30 15.7 °C 10.5 °C 1023.6 hPa WNW 3.2 km/h 19.3 km/h 71% 0.0 mm 629.00 W/m2
10:35 15.8 °C 9.5 °C 1023.6 hPa WNW 17.7 km/h 27.4 km/h 66% 0.0 mm 188.00 W/m2
10:40 15.7 °C 9.6 °C 1023.6 hPa West 13.0 km/h 19.3 km/h 67% 0.0 mm 649.00 W/m2
10:45 15.9 °C 10.2 °C 1023.6 hPa WNW 16.3 km/h 22.5 km/h 69% 0.0 mm 661.00 W/m2
10:50 15.9 °C 10.0 °C 1023.6 hPa WNW 24.1 km/h 24.1 km/h 68% 0.0 mm 666.00 W/m2
10:55 16.2 °C 9.8 °C 1023.6 hPa NW 17.7 km/h 22.5 km/h 66% 0.0 mm 661.00 W/m2
11:00 16.2 °C 10.1 °C 1023.6 hPa NW 6.4 km/h 17.7 km/h 67% 0.0 mm 671.00 W/m2
11:05 16.3 °C 9.5 °C 1023.9 hPa NW 16.3 km/h 20.9 km/h 64% 0.0 mm 675.00 W/m2
11:10 16.2 °C 9.8 °C 1023.9 hPa WNW 16.3 km/h 17.7 km/h 66% 0.0 mm 708.00 W/m2
11:15 16.1 °C 9.3 °C 1023.9 hPa NW 7.9 km/h 22.5 km/h 64% 0.0 mm 719.00 W/m2
11:20 16.1 °C 9.3 °C 1023.9 hPa WNW 4.7 km/h 14.5 km/h 64% 0.0 mm 728.00 W/m2
11:25 16.4 °C 9.8 °C 1023.9 hPa NNW 13.0 km/h 22.5 km/h 65% 0.0 mm 773.00 W/m2
11:30 16.7 °C 9.9 °C 1023.9 hPa NNW 19.5 km/h 25.7 km/h 64% 0.0 mm 765.00 W/m2
11:35 16.4 °C 9.6 °C 1023.9 hPa WNW 17.7 km/h 17.7 km/h 64% 0.0 mm 703.00 W/m2
11:40 16.7 °C 10.5 °C 1023.9 hPa WSW 6.4 km/h 24.1 km/h 67% 0.0 mm 805.00 W/m2
11:45 17.1 °C 9.8 °C 1023.9 hPa WNW 14.3 km/h 22.5 km/h 62% 0.0 mm 816.00 W/m2
11:50 16.8 °C 9.0 °C 1023.9 hPa NW 22.7 km/h 30.6 km/h 60% 0.0 mm 851.00 W/m2
11:55 16.6 °C 9.0 °C 1023.9 hPa NW 14.3 km/h 20.9 km/h 61% 0.0 mm 185.00 W/m2
12:00 16.6 °C 9.3 °C 1023.9 hPa West 13.0 km/h 22.5 km/h 62% 0.0 mm 800.00 W/m2
12:05 16.7 °C 8.9 °C 1023.9 hPa WNW 19.5 km/h 27.4 km/h 60% 0.0 mm 819.00 W/m2
12:10 16.8 °C 9.2 °C 1023.9 hPa West 19.5 km/h 24.1 km/h 61% 0.0 mm 768.00 W/m2
12:15 16.7 °C 9.1 °C 1023.9 hPa NW 17.7 km/h 19.3 km/h 61% 0.0 mm 780.00 W/m2
12:20 16.7 °C 9.1 °C 1023.9 hPa West 6.4 km/h 24.1 km/h 61% 0.0 mm 796.00 W/m2
12:25 16.8 °C 8.7 °C 1023.9 hPa WNW 14.3 km/h 20.9 km/h 59% 0.0 mm 831.00 W/m2
12:30 17.1 °C 9.3 °C 1023.9 hPa NW 13.0 km/h 19.3 km/h 60% 0.0 mm 234.00 W/m2
12:35 17.2 °C 9.4 °C 1024.3 hPa WNW 11.1 km/h 17.7 km/h 60% 0.0 mm 954.00 W/m2
12:40 17.2 °C 9.4 °C 1024.3 hPa NW 7.9 km/h 17.7 km/h 60% 0.0 mm 339.00 W/m2
12:45 17.3 °C 9.0 °C 1024.3 hPa NW 25.7 km/h 25.7 km/h 58% 0.0 mm 914.00 W/m2
12:50 17.1 °C 8.5 °C 1024.3 hPa WNW 13.0 km/h 20.9 km/h 57% 0.0 mm 928.00 W/m2
12:55 17.4 °C 8.8 °C 1024.3 hPa WNW 19.5 km/h 25.7 km/h 57% 0.0 mm 942.00 W/m2
13:00 17.4 °C 8.3 °C 1024.3 hPa NW 7.9 km/h 20.9 km/h 55% 0.0 mm 278.00 W/m2
13:05 17.4 °C 9.1 °C 1024.3 hPa NW 14.3 km/h 20.9 km/h 58% 0.0 mm 671.00 W/m2
13:10 17.4 °C 8.5 °C 1024.3 hPa NNW 16.3 km/h 25.7 km/h 56% 0.0 mm 322.00 W/m2
13:15 17.2 °C 8.6 °C 1024.3 hPa WNW 17.7 km/h 27.4 km/h 57% 0.0 mm 798.00 W/m2
13:20 17.2 °C 8.9 °C 1024.3 hPa North 13.0 km/h 19.3 km/h 58% 0.0 mm 223.00 W/m2
13:25 17.1 °C 8.8 °C 1024.3 hPa WNW 14.3 km/h 16.1 km/h 58% 0.0 mm 283.00 W/m2
13:30 17.3 °C 8.4 °C 1024.3 hPa NW 19.5 km/h 24.1 km/h 56% 0.0 mm 276.00 W/m2
13:35 17.6 °C 9.2 °C 1024.3 hPa WNW 11.1 km/h 20.9 km/h 58% 0.0 mm 800.00 W/m2
13:40 17.8 °C 9.4 °C 1024.3 hPa NW 24.1 km/h 25.7 km/h 58% 0.0 mm 807.00 W/m2
13:45 17.9 °C 9.5 °C 1024.3 hPa NW 19.5 km/h 25.7 km/h 58% 0.0 mm 807.00 W/m2
13:50 17.8 °C 9.7 °C 1024.3 hPa WNW 20.9 km/h 24.1 km/h 59% 0.0 mm 823.00 W/m2
13:55 17.8 °C 9.4 °C 1024.3 hPa NW 17.7 km/h 27.4 km/h 58% 0.0 mm 766.00 W/m2
14:00 17.8 °C 9.9 °C 1024.3 hPa West 24.1 km/h 24.1 km/h 60% 0.0 mm 424.00 W/m2
14:05 17.9 °C 10.0 °C 1024.3 hPa NW 25.7 km/h 25.7 km/h 60% 0.0 mm 765.00 W/m2
14:10 17.7 °C 9.3 °C 1024.3 hPa WNW 7.9 km/h 22.5 km/h 58% 0.0 mm 789.00 W/m2
14:15 17.8 °C 9.7 °C 1024.3 hPa NW 20.9 km/h 22.5 km/h 59% 0.0 mm 244.00 W/m2
14:20 17.7 °C 9.3 °C 1024.3 hPa West 16.3 km/h 24.1 km/h 58% 0.0 mm 758.00 W/m2
14:25 17.9 °C 9.5 °C 1024.3 hPa WNW 13.0 km/h 19.3 km/h 58% 0.0 mm 724.00 W/m2
14:30 18.1 °C 9.4 °C 1024.3 hPa NW 25.9 km/h 25.7 km/h 57% 0.0 mm 700.00 W/m2
14:35 18.1 °C 9.4 °C 1024.6 hPa NW 25.9 km/h 27.4 km/h 57% 0.0 mm 631.00 W/m2
14:40 18.2 °C 9.5 °C 1024.6 hPa WNW 13.0 km/h 20.9 km/h 57% 0.0 mm 631.00 W/m2
14:45 18.2 °C 9.3 °C 1024.6 hPa West 4.7 km/h 19.3 km/h 56% 0.0 mm 652.00 W/m2
14:50 18.3 °C 9.4 °C 1024.6 hPa WNW 22.7 km/h 29.0 km/h 56% 0.0 mm 682.00 W/m2
14:55 18.2 °C 9.5 °C 1024.6 hPa West 1.4 km/h 20.9 km/h 57% 0.0 mm 668.00 W/m2
15:00 18.3 °C 9.9 °C 1024.6 hPa WNW 13.0 km/h 32.2 km/h 58% 0.0 mm 668.00 W/m2
15:05 18.6 °C 10.2 °C 1024.6 hPa WNW 20.9 km/h 22.5 km/h 58% 0.0 mm 497.00 W/m2
15:10 18.6 °C 9.9 °C 1024.6 hPa WNW 13.0 km/h 20.9 km/h 57% 0.0 mm 309.00 W/m2
15:15 18.4 °C 9.7 °C 1024.6 hPa NW 9.7 km/h 30.6 km/h 57% 0.0 mm 216.00 W/m2
15:20 18.3 °C 10.1 °C 1024.6 hPa NW 17.7 km/h 22.5 km/h 59% 0.0 mm 153.00 W/m2
15:25 18.3 °C 9.9 °C 1024.6 hPa WNW 17.7 km/h 25.7 km/h 58% 0.0 mm 128.00 W/m2
15:30 18.4 °C 10.2 °C 1024.6 hPa NW 14.3 km/h 19.3 km/h 59% 0.0 mm 158.00 W/m2
15:35 18.5 °C 10.1 °C 1024.6 hPa WNW 16.3 km/h 19.3 km/h 58% 0.0 mm 272.00 W/m2
15:40 18.7 °C 10.3 °C 1024.6 hPa NW 14.3 km/h 27.4 km/h 58% 0.0 mm 301.00 W/m2
15:45 18.5 °C 10.1 °C 1024.6 hPa NW 9.7 km/h 19.3 km/h 58% 0.0 mm 156.00 W/m2
15:50 18.6 °C 10.4 °C 1024.6 hPa NW 6.4 km/h 27.4 km/h 59% 0.0 mm 566.00 W/m2
15:55 18.7 °C 10.3 °C 1024.6 hPa NW 16.3 km/h 24.1 km/h 58% 0.0 mm 573.00 W/m2
16:00 18.6 °C 9.9 °C 1024.6 hPa NW 13.0 km/h 27.4 km/h 57% 0.0 mm 563.00 W/m2
16:05 18.5 °C 9.3 °C 1024.6 hPa WNW 7.9 km/h 22.5 km/h 55% 0.0 mm 534.00 W/m2
16:10 18.9 °C 9.4 °C 1024.6 hPa WNW 20.9 km/h 24.1 km/h 54% 0.0 mm 513.00 W/m2
16:15 18.8 °C 8.2 °C 1024.9 hPa WNW 16.3 km/h 29.0 km/h 50% 0.0 mm 508.00 W/m2
16:20 18.9 °C 7.3 °C 1024.9 hPa NW 9.7 km/h 27.4 km/h 47% 0.0 mm 496.00 W/m2
16:25 18.9 °C 7.3 °C 1024.9 hPa WNW 14.3 km/h 24.1 km/h 47% 0.0 mm 478.00 W/m2
16:30 18.7 °C 6.5 °C 1024.9 hPa WNW 19.5 km/h 27.4 km/h 45% 0.0 mm 367.00 W/m2
16:35 18.7 °C 6.8 °C 1024.9 hPa WNW 11.1 km/h 20.9 km/h 46% 0.0 mm 466.00 W/m2
16:40 18.8 °C 6.0 °C 1024.9 hPa NW 14.3 km/h 24.1 km/h 43% 0.0 mm 441.00 W/m2
16:45 18.8 °C 5.6 °C 1024.9 hPa WNW 20.9 km/h 30.6 km/h 42% 0.0 mm 413.00 W/m2
16:50 18.8 °C 6.3 °C 1024.9 hPa NNW 17.7 km/h 27.4 km/h 44% 0.0 mm 415.00 W/m2
16:55 18.7 °C 6.8 °C 1024.9 hPa NNE 13.0 km/h 20.9 km/h 46% 0.0 mm 401.00 W/m2
17:00 18.8 °C 7.6 °C 1024.9 hPa NW 16.3 km/h 17.7 km/h 48% 0.0 mm 408.00 W/m2
17:05 18.8 °C 7.6 °C 1024.9 hPa NW 9.7 km/h 17.7 km/h 48% 0.0 mm 404.00 W/m2
17:10 19.1 °C 8.4 °C 1024.9 hPa WNW 27.4 km/h 27.4 km/h 50% 0.0 mm 401.00 W/m2
17:15 19.1 °C 8.1 °C 1024.9 hPa NW 16.3 km/h 25.7 km/h 49% 0.0 mm 388.00 W/m2
17:20 18.8 °C 7.6 °C 1024.9 hPa WNW 19.5 km/h 33.8 km/h 48% 0.0 mm 373.00 W/m2
17:25 18.8 °C 7.6 °C 1024.9 hPa WNW 17.7 km/h 20.9 km/h 48% 0.0 mm 357.00 W/m2
17:30 18.9 °C 8.2 °C 1024.9 hPa NW 16.3 km/h 27.4 km/h 50% 0.0 mm 345.00 W/m2
17:35 18.7 °C 8.4 °C 1024.9 hPa NW 20.9 km/h 20.9 km/h 51% 0.0 mm 330.00 W/m2
17:40 18.7 °C 8.9 °C 1024.9 hPa WNW 13.0 km/h 24.1 km/h 53% 0.0 mm 308.00 W/m2
17:45 18.6 °C 9.1 °C 1024.9 hPa WNW 13.0 km/h 19.3 km/h 54% 0.0 mm 292.00 W/m2
17:50 18.6 °C 9.4 °C 1025.3 hPa WNW 20.9 km/h 24.1 km/h 55% 0.0 mm 301.00 W/m2
17:55 18.7 °C 9.7 °C 1025.3 hPa WNW 11.1 km/h 11.3 km/h 56% 0.0 mm 287.00 W/m2
18:00 18.9 °C 10.2 °C 1025.3 hPa WNW 17.7 km/h 22.5 km/h 57% 0.0 mm 251.00 W/m2
18:05 18.6 °C 10.2 °C 1025.3 hPa WNW 17.7 km/h 22.5 km/h 58% 0.0 mm 248.00 W/m2
18:10 18.6 °C 10.4 °C 1025.3 hPa NW 9.7 km/h 20.9 km/h 59% 0.0 mm 241.00 W/m2
18:15 18.5 °C 10.3 °C 1025.3 hPa West 6.4 km/h 20.9 km/h 59% 0.0 mm 190.00 W/m2
18:20 18.4 °C 10.7 °C 1025.3 hPa WSW 17.7 km/h 20.9 km/h 61% 0.0 mm 123.00 W/m2
18:25 18.4 °C 11.0 °C 1025.3 hPa WNW 19.5 km/h 25.7 km/h 62% 0.0 mm 84.00 W/m2
18:30 18.2 °C 11.0 °C 1025.3 hPa WNW 11.1 km/h 16.1 km/h 63% 0.0 mm 74.00 W/m2